sensor_id;sensor_type;location;lat;lon;timestamp;P1;durP1;ratioP1;P2;durP2;ratioP2
41687;SDS011;27371;42.686;23.362;2023-06-10T00:01:34;6.25;;;4.55;;
41687;SDS011;27371;42.686;23.362;2023-06-10T00:04:11;5.25;;;4.18;;
41687;SDS011;27371;42.686;23.362;2023-06-10T00:06:37;5.68;;;4.22;;
41687;SDS011;27371;42.686;23.362;2023-06-10T00:09:03;11.32;;;4.80;;
41687;SDS011;27371;42.686;23.362;2023-06-10T00:11:35;6.57;;;4.18;;
41687;SDS011;27371;42.686;23.362;2023-06-10T00:14:02;7.28;;;4.75;;
41687;SDS011;27371;42.686;23.362;2023-06-10T00:16:28;10.27;;;5.32;;
41687;SDS011;27371;42.686;23.362;2023-06-10T00:18:54;10.13;;;5.63;;
41687;SDS011;27371;42.686;23.362;2023-06-10T00:21:29;7.45;;;5.70;;
41687;SDS011;27371;42.686;23.362;2023-06-10T00:24:03;7.18;;;5.18;;
41687;SDS011;27371;42.686;23.362;2023-06-10T00:26:30;6.45;;;5.38;;
41687;SDS011;27371;42.686;23.362;2023-06-10T00:28:56;13.57;;;5.40;;
41687;SDS011;27371;42.686;23.362;2023-06-10T00:31:21;8.40;;;5.28;;
41687;SDS011;27371;42.686;23.362;2023-06-10T00:33:47;10.05;;;5.57;;
41687;SDS011;27371;42.686;23.362;2023-06-10T00:36:13;7.75;;;5.90;;
41687;SDS011;27371;42.686;23.362;2023-06-10T00:38:38;9.43;;;5.63;;
41687;SDS011;27371;42.686;23.362;2023-06-10T00:41:05;14.48;;;6.38;;
41687;SDS011;27371;42.686;23.362;2023-06-10T00:43:31;7.03;;;5.47;;
41687;SDS011;27371;42.686;23.362;2023-06-10T00:45:56;10.52;;;5.72;;
41687;SDS011;27371;42.686;23.362;2023-06-10T00:48:22;7.57;;;5.45;;
41687;SDS011;27371;42.686;23.362;2023-06-10T00:50:48;9.18;;;5.57;;
41687;SDS011;27371;42.686;23.362;2023-06-10T00:53:14;11.63;;;5.30;;
41687;SDS011;27371;42.686;23.362;2023-06-10T00:55:40;8.40;;;4.95;;
41687;SDS011;27371;42.686;23.362;2023-06-10T00:58:06;9.40;;;5.10;;
41687;SDS011;27371;42.686;23.362;2023-06-10T01:00:32;5.20;;;4.60;;
41687;SDS011;27371;42.686;23.362;2023-06-10T01:02:58;7.10;;;4.75;;
41687;SDS011;27371;42.686;23.362;2023-06-10T01:05:23;10.30;;;4.88;;
41687;SDS011;27371;42.686;23.362;2023-06-10T01:07:53;9.02;;;4.97;;
41687;SDS011;27371;42.686;23.362;2023-06-10T01:10:32;6.97;;;5.00;;
41687;SDS011;27371;42.686;23.362;2023-06-10T01:13:06;5.97;;;5.00;;
41687;SDS011;27371;42.686;23.362;2023-06-10T01:15:37;7.07;;;5.20;;
41687;SDS011;27371;42.686;23.362;2023-06-10T01:18:07;10.25;;;6.50;;
41687;SDS011;27371;42.686;23.362;2023-06-10T01:20:34;11.82;;;5.57;;
41687;SDS011;27371;42.686;23.362;2023-06-10T01:23:04;9.02;;;5.68;;
41687;SDS011;27371;42.686;23.362;2023-06-10T01:25:31;7.00;;;5.57;;
41687;SDS011;27371;42.686;23.362;2023-06-10T01:30:46;7.00;;;4.63;;
41687;SDS011;27371;42.686;23.362;2023-06-10T01:33:14;6.45;;;4.85;;
41687;SDS011;27371;42.686;23.362;2023-06-10T01:35:43;6.90;;;4.93;;
41687;SDS011;27371;42.686;23.362;2023-06-10T01:38:12;8.60;;;5.03;;
41687;SDS011;27371;42.686;23.362;2023-06-10T01:40:40;8.18;;;4.65;;
41687;SDS011;27371;42.686;23.362;2023-06-10T01:43:06;7.60;;;4.93;;
41687;SDS011;27371;42.686;23.362;2023-06-10T01:45:32;9.98;;;5.18;;
41687;SDS011;27371;42.686;23.362;2023-06-10T01:47:58;8.85;;;4.60;;
41687;SDS011;27371;42.686;23.362;2023-06-10T01:50:23;6.95;;;4.90;;
41687;SDS011;27371;42.686;23.362;2023-06-10T01:52:50;7.65;;;5.22;;
41687;SDS011;27371;42.686;23.362;2023-06-10T01:55:15;8.07;;;5.30;;
41687;SDS011;27371;42.686;23.362;2023-06-10T01:57:41;10.65;;;5.53;;
41687;SDS011;27371;42.686;23.362;2023-06-10T02:00:07;7.85;;;5.25;;
41687;SDS011;27371;42.686;23.362;2023-06-10T02:02:33;11.02;;;5.43;;
41687;SDS011;27371;42.686;23.362;2023-06-10T02:04:58;6.78;;;5.93;;
41687;SDS011;27371;42.686;23.362;2023-06-10T02:07:25;13.02;;;6.78;;
41687;SDS011;27371;42.686;23.362;2023-06-10T02:09:50;9.95;;;5.93;;
41687;SDS011;27371;42.686;23.362;2023-06-10T02:12:16;12.68;;;5.53;;
41687;SDS011;27371;42.686;23.362;2023-06-10T02:14:41;7.93;;;5.72;;
41687;SDS011;27371;42.686;23.362;2023-06-10T02:17:07;12.48;;;5.43;;
41687;SDS011;27371;42.686;23.362;2023-06-10T02:19:32;5.90;;;4.75;;
41687;SDS011;27371;42.686;23.362;2023-06-10T02:22:01;7.32;;;5.32;;
41687;SDS011;27371;42.686;23.362;2023-06-10T02:24:27;12.48;;;5.40;;
41687;SDS011;27371;42.686;23.362;2023-06-10T02:26:52;10.88;;;5.25;;
41687;SDS011;27371;42.686;23.362;2023-06-10T02:29:18;7.32;;;5.47;;
41687;SDS011;27371;42.686;23.362;2023-06-10T02:31:43;8.75;;;5.03;;
41687;SDS011;27371;42.686;23.362;2023-06-10T02:34:09;11.38;;;5.47;;
41687;SDS011;27371;42.686;23.362;2023-06-10T02:36:34;8.25;;;5.05;;
41687;SDS011;27371;42.686;23.362;2023-06-10T02:39:01;8.18;;;5.18;;
41687;SDS011;27371;42.686;23.362;2023-06-10T02:41:27;6.53;;;5.00;;
41687;SDS011;27371;42.686;23.362;2023-06-10T02:43:54;5.68;;;5.03;;
41687;SDS011;27371;42.686;23.362;2023-06-10T02:46:19;9.85;;;5.10;;
41687;SDS011;27371;42.686;23.362;2023-06-10T02:48:45;6.97;;;4.82;;
41687;SDS011;27371;42.686;23.362;2023-06-10T02:51:10;10.77;;;5.13;;
41687;SDS011;27371;42.686;23.362;2023-06-10T02:53:36;8.60;;;5.40;;
41687;SDS011;27371;42.686;23.362;2023-06-10T02:56:02;6.60;;;4.70;;
41687;SDS011;27371;42.686;23.362;2023-06-10T02:58:28;7.15;;;5.20;;
41687;SDS011;27371;42.686;23.362;2023-06-10T03:00:53;9.43;;;5.45;;
41687;SDS011;27371;42.686;23.362;2023-06-10T03:03:19;7.47;;;5.25;;
41687;SDS011;27371;42.686;23.362;2023-06-10T03:05:45;6.75;;;5.22;;
41687;SDS011;27371;42.686;23.362;2023-06-10T03:08:11;6.43;;;5.57;;
41687;SDS011;27371;42.686;23.362;2023-06-10T03:10:36;6.25;;;5.65;;
41687;SDS011;27371;42.686;23.362;2023-06-10T03:13:02;8.10;;;6.10;;
41687;SDS011;27371;42.686;23.362;2023-06-10T03:15:27;12.52;;;6.97;;
41687;SDS011;27371;42.686;23.362;2023-06-10T03:17:54;8.27;;;6.45;;
41687;SDS011;27371;42.686;23.362;2023-06-10T03:20:20;8.85;;;6.32;;
41687;SDS011;27371;42.686;23.362;2023-06-10T03:22:46;9.93;;;6.53;;
41687;SDS011;27371;42.686;23.362;2023-06-10T03:25:12;11.93;;;6.22;;
41687;SDS011;27371;42.686;23.362;2023-06-10T03:27:42;9.63;;;5.80;;
41687;SDS011;27371;42.686;23.362;2023-06-10T03:30:07;9.15;;;6.55;;
41687;SDS011;27371;42.686;23.362;2023-06-10T03:32:33;8.35;;;6.10;;
41687;SDS011;27371;42.686;23.362;2023-06-10T03:35:00;8.85;;;6.00;;
41687;SDS011;27371;42.686;23.362;2023-06-10T03:37:26;7.47;;;6.15;;
41687;SDS011;27371;42.686;23.362;2023-06-10T03:39:52;8.85;;;5.85;;
41687;SDS011;27371;42.686;23.362;2023-06-10T03:42:17;12.57;;;5.95;;
41687;SDS011;27371;42.686;23.362;2023-06-10T03:44:43;7.72;;;4.93;;
41687;SDS011;27371;42.686;23.362;2023-06-10T03:47:08;6.47;;;4.30;;
41687;SDS011;27371;42.686;23.362;2023-06-10T03:49:34;7.00;;;4.40;;
41687;SDS011;27371;42.686;23.362;2023-06-10T03:52:01;6.07;;;3.90;;
41687;SDS011;27371;42.686;23.362;2023-06-10T03:54:35;10.50;;;5.32;;
41687;SDS011;27371;42.686;23.362;2023-06-10T03:57:03;4.68;;;4.15;;
41687;SDS011;27371;42.686;23.362;2023-06-10T03:59:32;10.00;;;4.50;;
41687;SDS011;27371;42.686;23.362;2023-06-10T04:01:57;7.20;;;4.57;;
41687;SDS011;27371;42.686;23.362;2023-06-10T04:04:23;8.00;;;4.50;;
41687;SDS011;27371;42.686;23.362;2023-06-10T04:06:49;6.38;;;4.70;;
41687;SDS011;27371;42.686;23.362;2023-06-10T04:09:15;8.02;;;4.30;;
41687;SDS011;27371;42.686;23.362;2023-06-10T04:11:41;5.60;;;4.57;;
41687;SDS011;27371;42.686;23.362;2023-06-10T04:14:07;7.13;;;4.40;;
41687;SDS011;27371;42.686;23.362;2023-06-10T04:16:33;6.80;;;4.13;;
41687;SDS011;27371;42.686;23.362;2023-06-10T04:18:59;5.07;;;3.97;;
41687;SDS011;27371;42.686;23.362;2023-06-10T04:21:26;6.57;;;4.22;;
41687;SDS011;27371;42.686;23.362;2023-06-10T04:23:51;5.07;;;4.22;;
41687;SDS011;27371;42.686;23.362;2023-06-10T04:26:17;6.65;;;4.03;;
41687;SDS011;27371;42.686;23.362;2023-06-10T04:28:43;8.00;;;4.40;;
41687;SDS011;27371;42.686;23.362;2023-06-10T04:31:09;5.22;;;4.28;;
41687;SDS011;27371;42.686;23.362;2023-06-10T04:33:35;7.57;;;3.90;;
41687;SDS011;27371;42.686;23.362;2023-06-10T04:36:01;10.18;;;4.57;;
41687;SDS011;27371;42.686;23.362;2023-06-10T04:38:26;10.95;;;4.70;;
41687;SDS011;27371;42.686;23.362;2023-06-10T04:40:52;7.05;;;4.45;;
41687;SDS011;27371;42.686;23.362;2023-06-10T04:43:17;5.80;;;4.47;;
41687;SDS011;27371;42.686;23.362;2023-06-10T04:45:43;7.93;;;4.65;;
41687;SDS011;27371;42.686;23.362;2023-06-10T04:48:09;9.57;;;4.88;;
41687;SDS011;27371;42.686;23.362;2023-06-10T04:50:36;5.85;;;4.22;;
41687;SDS011;27371;42.686;23.362;2023-06-10T04:53:01;7.40;;;4.57;;
41687;SDS011;27371;42.686;23.362;2023-06-10T04:55:27;6.88;;;4.28;;
41687;SDS011;27371;42.686;23.362;2023-06-10T04:57:53;9.18;;;5.00;;
41687;SDS011;27371;42.686;23.362;2023-06-10T05:00:18;8.23;;;5.55;;
41687;SDS011;27371;42.686;23.362;2023-06-10T05:02:44;13.30;;;5.20;;
41687;SDS011;27371;42.686;23.362;2023-06-10T05:05:10;8.32;;;5.65;;
41687;SDS011;27371;42.686;23.362;2023-06-10T05:07:36;10.80;;;5.88;;
41687;SDS011;27371;42.686;23.362;2023-06-10T05:10:02;10.63;;;5.30;;
41687;SDS011;27371;42.686;23.362;2023-06-10T05:12:28;8.13;;;5.45;;
41687;SDS011;27371;42.686;23.362;2023-06-10T05:14:53;8.70;;;6.68;;
41687;SDS011;27371;42.686;23.362;2023-06-10T05:17:19;6.85;;;5.53;;
41687;SDS011;27371;42.686;23.362;2023-06-10T05:19:44;9.13;;;5.30;;
41687;SDS011;27371;42.686;23.362;2023-06-10T05:22:10;10.27;;;5.80;;
41687;SDS011;27371;42.686;23.362;2023-06-10T05:24:36;9.52;;;5.45;;
41687;SDS011;27371;42.686;23.362;2023-06-10T05:27:01;7.15;;;5.68;;
41687;SDS011;27371;42.686;23.362;2023-06-10T05:29:27;9.98;;;5.80;;
41687;SDS011;27371;42.686;23.362;2023-06-10T05:31:53;8.05;;;5.25;;
41687;SDS011;27371;42.686;23.362;2023-06-10T05:34:21;9.77;;;6.13;;
41687;SDS011;27371;42.686;23.362;2023-06-10T05:36:47;13.57;;;6.18;;
41687;SDS011;27371;42.686;23.362;2023-06-10T05:39:12;12.50;;;6.65;;
41687;SDS011;27371;42.686;23.362;2023-06-10T05:41:38;11.18;;;6.28;;
41687;SDS011;27371;42.686;23.362;2023-06-10T05:44:03;11.38;;;6.47;;
41687;SDS011;27371;42.686;23.362;2023-06-10T05:46:29;8.95;;;6.13;;
41687;SDS011;27371;42.686;23.362;2023-06-10T05:48:55;10.65;;;5.93;;
41687;SDS011;27371;42.686;23.362;2023-06-10T05:51:20;7.45;;;5.90;;
41687;SDS011;27371;42.686;23.362;2023-06-10T05:53:46;8.75;;;5.95;;
41687;SDS011;27371;42.686;23.362;2023-06-10T05:56:12;11.20;;;6.03;;
41687;SDS011;27371;42.686;23.362;2023-06-10T05:58:38;12.63;;;8.35;;
41687;SDS011;27371;42.686;23.362;2023-06-10T06:01:04;8.93;;;6.63;;
41687;SDS011;27371;42.686;23.362;2023-06-10T06:03:29;7.35;;;6.25;;
41687;SDS011;27371;42.686;23.362;2023-06-10T06:05:55;11.90;;;6.97;;
41687;SDS011;27371;42.686;23.362;2023-06-10T06:08:21;9.65;;;6.03;;
41687;SDS011;27371;42.686;23.362;2023-06-10T06:10:46;14.52;;;6.55;;
41687;SDS011;27371;42.686;23.362;2023-06-10T06:13:12;16.15;;;7.18;;
41687;SDS011;27371;42.686;23.362;2023-06-10T06:15:38;16.02;;;7.30;;
41687;SDS011;27371;42.686;23.362;2023-06-10T06:18:04;10.38;;;6.28;;
41687;SDS011;27371;42.686;23.362;2023-06-10T06:20:29;11.05;;;6.15;;
41687;SDS011;27371;42.686;23.362;2023-06-10T06:22:55;9.45;;;6.38;;
41687;SDS011;27371;42.686;23.362;2023-06-10T06:25:20;12.80;;;7.03;;
41687;SDS011;27371;42.686;23.362;2023-06-10T06:27:46;10.90;;;6.40;;
41687;SDS011;27371;42.686;23.362;2023-06-10T06:30:11;8.32;;;6.13;;
41687;SDS011;27371;42.686;23.362;2023-06-10T06:32:37;13.73;;;6.40;;
41687;SDS011;27371;42.686;23.362;2023-06-10T06:35:03;8.07;;;6.05;;
41687;SDS011;27371;42.686;23.362;2023-06-10T06:37:30;8.93;;;5.70;;
41687;SDS011;27371;42.686;23.362;2023-06-10T06:39:57;10.18;;;6.40;;
41687;SDS011;27371;42.686;23.362;2023-06-10T06:42:23;8.65;;;6.05;;
41687;SDS011;27371;42.686;23.362;2023-06-10T06:44:48;12.32;;;5.93;;
41687;SDS011;27371;42.686;23.362;2023-06-10T06:47:13;12.85;;;6.22;;
41687;SDS011;27371;42.686;23.362;2023-06-10T06:49:48;9.90;;;5.65;;
41687;SDS011;27371;42.686;23.362;2023-06-10T06:52:14;12.02;;;5.82;;
41687;SDS011;27371;42.686;23.362;2023-06-10T06:54:40;10.82;;;6.10;;
41687;SDS011;27371;42.686;23.362;2023-06-10T06:57:06;9.85;;;5.60;;
41687;SDS011;27371;42.686;23.362;2023-06-10T06:59:32;9.88;;;5.35;;
41687;SDS011;27371;42.686;23.362;2023-06-10T07:01:58;7.05;;;4.60;;
41687;SDS011;27371;42.686;23.362;2023-06-10T07:04:23;6.32;;;4.00;;
41687;SDS011;27371;42.686;23.362;2023-06-10T07:06:52;7.32;;;3.65;;
41687;SDS011;27371;42.686;23.362;2023-06-10T07:09:17;9.27;;;4.20;;
41687;SDS011;27371;42.686;23.362;2023-06-10T07:11:43;6.80;;;4.18;;
41687;SDS011;27371;42.686;23.362;2023-06-10T07:14:09;6.72;;;3.70;;
41687;SDS011;27371;42.686;23.362;2023-06-10T07:16:34;6.35;;;4.15;;
41687;SDS011;27371;42.686;23.362;2023-06-10T07:19:00;15.95;;;7.70;;
41687;SDS011;27371;42.686;23.362;2023-06-10T07:21:29;7.05;;;4.20;;
41687;SDS011;27371;42.686;23.362;2023-06-10T07:23:55;9.45;;;4.32;;
41687;SDS011;27371;42.686;23.362;2023-06-10T07:26:24;6.30;;;3.85;;
41687;SDS011;27371;42.686;23.362;2023-06-10T07:28:50;7.13;;;3.70;;
41687;SDS011;27371;42.686;23.362;2023-06-10T07:31:16;9.80;;;4.05;;
41687;SDS011;27371;42.686;23.362;2023-06-10T07:33:42;8.15;;;3.80;;
41687;SDS011;27371;42.686;23.362;2023-06-10T07:36:08;11.98;;;3.47;;
41687;SDS011;27371;42.686;23.362;2023-06-10T07:38:34;7.10;;;3.10;;
41687;SDS011;27371;42.686;23.362;2023-06-10T07:41:00;9.57;;;3.20;;
41687;SDS011;27371;42.686;23.362;2023-06-10T07:43:26;6.03;;;2.63;;
41687;SDS011;27371;42.686;23.362;2023-06-10T07:45:52;4.10;;;2.60;;
41687;SDS011;27371;42.686;23.362;2023-06-10T07:48:18;5.60;;;3.60;;
41687;SDS011;27371;42.686;23.362;2023-06-10T07:50:43;7.18;;;3.10;;
41687;SDS011;27371;42.686;23.362;2023-06-10T07:53:09;7.78;;;2.85;;
41687;SDS011;27371;42.686;23.362;2023-06-10T07:55:34;8.52;;;2.95;;
41687;SDS011;27371;42.686;23.362;2023-06-10T07:58:00;4.20;;;2.88;;
41687;SDS011;27371;42.686;23.362;2023-06-10T08:00:25;5.03;;;2.83;;
41687;SDS011;27371;42.686;23.362;2023-06-10T08:02:51;3.92;;;2.38;;
41687;SDS011;27371;42.686;23.362;2023-06-10T08:05:17;3.95;;;1.92;;
41687;SDS011;27371;42.686;23.362;2023-06-10T08:07:42;6.35;;;2.20;;
41687;SDS011;27371;42.686;23.362;2023-06-10T08:10:08;6.95;;;2.65;;
41687;SDS011;27371;42.686;23.362;2023-06-10T08:12:34;5.18;;;2.72;;
41687;SDS011;27371;42.686;23.362;2023-06-10T08:15:01;4.30;;;2.33;;
41687;SDS011;27371;42.686;23.362;2023-06-10T08:17:29;3.10;;;2.40;;
41687;SDS011;27371;42.686;23.362;2023-06-10T08:19:55;9.48;;;2.78;;
41687;SDS011;27371;42.686;23.362;2023-06-10T08:22:21;4.95;;;3.08;;
41687;SDS011;27371;42.686;23.362;2023-06-10T08:24:46;4.20;;;3.00;;
41687;SDS011;27371;42.686;23.362;2023-06-10T08:27:12;4.82;;;2.65;;
41687;SDS011;27371;42.686;23.362;2023-06-10T08:29:37;3.50;;;2.25;;
41687;SDS011;27371;42.686;23.362;2023-06-10T08:32:04;3.65;;;2.38;;
41687;SDS011;27371;42.686;23.362;2023-06-10T08:34:29;4.35;;;2.15;;
41687;SDS011;27371;42.686;23.362;2023-06-10T08:36:55;4.53;;;2.58;;
41687;SDS011;27371;42.686;23.362;2023-06-10T08:39:21;2.75;;;2.08;;
41687;SDS011;27371;42.686;23.362;2023-06-10T08:42:01;7.22;;;2.25;;
41687;SDS011;27371;42.686;23.362;2023-06-10T08:44:36;6.70;;;2.60;;
41687;SDS011;27371;42.686;23.362;2023-06-10T08:47:11;3.58;;;2.00;;
41687;SDS011;27371;42.686;23.362;2023-06-10T08:49:41;3.20;;;1.75;;
41687;SDS011;27371;42.686;23.362;2023-06-10T08:52:11;2.13;;;1.48;;
41687;SDS011;27371;42.686;23.362;2023-06-10T08:54:41;2.63;;;1.63;;
41687;SDS011;27371;42.686;23.362;2023-06-10T08:57:09;3.55;;;1.70;;
41687;SDS011;27371;42.686;23.362;2023-06-10T08:59:34;3.33;;;1.60;;
41687;SDS011;27371;42.686;23.362;2023-06-10T09:02:01;3.45;;;1.95;;
41687;SDS011;27371;42.686;23.362;2023-06-10T09:04:29;5.00;;;2.08;;
41687;SDS011;27371;42.686;23.362;2023-06-10T09:06:57;2.85;;;2.25;;
41687;SDS011;27371;42.686;23.362;2023-06-10T09:09:23;6.32;;;2.35;;
41687;SDS011;27371;42.686;23.362;2023-06-10T09:11:50;4.03;;;2.08;;
41687;SDS011;27371;42.686;23.362;2023-06-10T09:14:15;3.45;;;1.90;;
41687;SDS011;27371;42.686;23.362;2023-06-10T09:16:41;3.25;;;2.25;;
41687;SDS011;27371;42.686;23.362;2023-06-10T09:19:07;3.70;;;2.00;;
41687;SDS011;27371;42.686;23.362;2023-06-10T09:21:34;3.90;;;2.00;;
41687;SDS011;27371;42.686;23.362;2023-06-10T09:24:03;4.57;;;1.75;;
41687;SDS011;27371;42.686;23.362;2023-06-10T09:26:30;4.07;;;1.80;;
41687;SDS011;27371;42.686;23.362;2023-06-10T09:29:05;4.20;;;2.30;;
41687;SDS011;27371;42.686;23.362;2023-06-10T09:31:37;4.45;;;1.50;;
41687;SDS011;27371;42.686;23.362;2023-06-10T09:34:12;3.22;;;2.10;;
41687;SDS011;27371;42.686;23.362;2023-06-10T09:36:39;3.90;;;2.00;;
41687;SDS011;27371;42.686;23.362;2023-06-10T09:39:05;5.57;;;2.38;;
41687;SDS011;27371;42.686;23.362;2023-06-10T09:41:43;3.10;;;2.17;;
41687;SDS011;27371;42.686;23.362;2023-06-10T09:46:39;4.05;;;2.50;;
41687;SDS011;27371;42.686;23.362;2023-06-10T09:49:05;5.15;;;2.28;;
41687;SDS011;27371;42.686;23.362;2023-06-10T09:51:31;5.38;;;2.22;;
41687;SDS011;27371;42.686;23.362;2023-06-10T09:54:01;4.68;;;2.10;;
41687;SDS011;27371;42.686;23.362;2023-06-10T09:56:34;3.50;;;2.08;;
41687;SDS011;27371;42.686;23.362;2023-06-10T09:59:05;4.28;;;2.03;;
41687;SDS011;27371;42.686;23.362;2023-06-10T10:01:31;2.38;;;1.63;;
41687;SDS011;27371;42.686;23.362;2023-06-10T10:03:58;4.55;;;2.15;;
41687;SDS011;27371;42.686;23.362;2023-06-10T10:06:24;4.45;;;1.90;;
41687;SDS011;27371;42.686;23.362;2023-06-10T10:08:51;4.35;;;2.50;;
41687;SDS011;27371;42.686;23.362;2023-06-10T10:11:17;4.93;;;2.35;;
41687;SDS011;27371;42.686;23.362;2023-06-10T10:13:44;5.15;;;2.28;;
41687;SDS011;27371;42.686;23.362;2023-06-10T10:16:14;3.70;;;1.95;;
41687;SDS011;27371;42.686;23.362;2023-06-10T10:18:43;3.22;;;1.83;;
41687;SDS011;27371;42.686;23.362;2023-06-10T10:21:13;4.90;;;2.28;;
41687;SDS011;27371;42.686;23.362;2023-06-10T10:23:48;4.45;;;3.05;;
41687;SDS011;27371;42.686;23.362;2023-06-10T10:26:14;5.85;;;2.45;;
41687;SDS011;27371;42.686;23.362;2023-06-10T10:28:45;4.05;;;2.00;;
41687;SDS011;27371;42.686;23.362;2023-06-10T10:31:30;2.88;;;2.10;;
41687;SDS011;27371;42.686;23.362;2023-06-10T10:34:00;4.65;;;2.60;;
41687;SDS011;27371;42.686;23.362;2023-06-10T10:36:31;6.85;;;2.30;;
41687;SDS011;27371;42.686;23.362;2023-06-10T10:38:57;3.65;;;2.30;;
41687;SDS011;27371;42.686;23.362;2023-06-10T10:41:26;3.28;;;1.95;;
41687;SDS011;27371;42.686;23.362;2023-06-10T10:43:55;8.43;;;2.35;;
41687;SDS011;27371;42.686;23.362;2023-06-10T10:46:21;7.78;;;2.17;;
41687;SDS011;27371;42.686;23.362;2023-06-10T10:48:51;3.90;;;2.50;;
41687;SDS011;27371;42.686;23.362;2023-06-10T10:51:19;5.53;;;2.45;;
41687;SDS011;27371;42.686;23.362;2023-06-10T10:53:44;4.97;;;2.20;;
41687;SDS011;27371;42.686;23.362;2023-06-10T10:56:39;2.93;;;1.93;;
41687;SDS011;27371;42.686;23.362;2023-06-10T10:59:05;3.78;;;2.15;;
41687;SDS011;27371;42.686;23.362;2023-06-10T11:01:41;6.32;;;2.67;;
41687;SDS011;27371;42.686;23.362;2023-06-10T11:04:10;6.57;;;2.30;;
41687;SDS011;27371;42.686;23.362;2023-06-10T11:06:35;4.47;;;2.10;;
41687;SDS011;27371;42.686;23.362;2023-06-10T11:09:01;4.60;;;2.25;;
41687;SDS011;27371;42.686;23.362;2023-06-10T11:11:53;3.45;;;2.30;;
41687;SDS011;27371;42.686;23.362;2023-06-10T11:14:27;5.22;;;2.25;;
41687;SDS011;27371;42.686;23.362;2023-06-10T11:16:54;3.85;;;2.13;;
41687;SDS011;27371;42.686;23.362;2023-06-10T11:19:35;6.53;;;2.38;;
41687;SDS011;27371;42.686;23.362;2023-06-10T11:22:02;3.03;;;2.10;;
41687;SDS011;27371;42.686;23.362;2023-06-10T11:24:30;3.17;;;2.10;;
41687;SDS011;27371;42.686;23.362;2023-06-10T11:27:14;3.25;;;2.55;;
41687;SDS011;27371;42.686;23.362;2023-06-10T11:30:25;4.20;;;2.45;;
41687;SDS011;27371;42.686;23.362;2023-06-10T11:32:50;4.13;;;2.63;;
41687;SDS011;27371;42.686;23.362;2023-06-10T11:35:16;6.78;;;2.90;;
41687;SDS011;27371;42.686;23.362;2023-06-10T11:37:44;4.18;;;2.75;;
41687;SDS011;27371;42.686;23.362;2023-06-10T11:40:10;7.43;;;2.53;;
41687;SDS011;27371;42.686;23.362;2023-06-10T11:42:42;3.38;;;2.30;;
41687;SDS011;27371;42.686;23.362;2023-06-10T11:45:08;3.38;;;2.35;;
41687;SDS011;27371;42.686;23.362;2023-06-10T11:47:34;4.70;;;2.15;;
41687;SDS011;27371;42.686;23.362;2023-06-10T11:50:00;4.57;;;2.35;;
41687;SDS011;27371;42.686;23.362;2023-06-10T11:52:29;4.70;;;1.98;;
41687;SDS011;27371;42.686;23.362;2023-06-10T11:54:57;6.45;;;2.38;;
41687;SDS011;27371;42.686;23.362;2023-06-10T11:57:22;2.80;;;2.20;;
41687;SDS011;27371;42.686;23.362;2023-06-10T11:59:48;3.13;;;1.95;;
41687;SDS011;27371;42.686;23.362;2023-06-10T12:02:17;4.60;;;2.08;;
41687;SDS011;27371;42.686;23.362;2023-06-10T12:04:44;3.05;;;1.70;;
41687;SDS011;27371;42.686;23.362;2023-06-10T12:07:14;5.25;;;2.00;;
41687;SDS011;27371;42.686;23.362;2023-06-10T12:09:42;2.30;;;1.55;;
41687;SDS011;27371;42.686;23.362;2023-06-10T12:12:08;3.67;;;1.85;;
41687;SDS011;27371;42.686;23.362;2023-06-10T12:17:22;4.72;;;2.17;;
41687;SDS011;27371;42.686;23.362;2023-06-10T12:20:01;3.00;;;1.92;;
41687;SDS011;27371;42.686;23.362;2023-06-10T12:22:41;2.45;;;1.48;;
41687;SDS011;27371;42.686;23.362;2023-06-10T12:25:09;3.60;;;1.77;;
41687;SDS011;27371;42.686;23.362;2023-06-10T12:27:36;2.97;;;1.70;;
41687;SDS011;27371;42.686;23.362;2023-06-10T12:30:03;2.30;;;1.73;;
41687;SDS011;27371;42.686;23.362;2023-06-10T12:32:40;3.38;;;1.80;;
41687;SDS011;27371;42.686;23.362;2023-06-10T12:35:08;4.40;;;1.50;;
41687;SDS011;27371;42.686;23.362;2023-06-10T12:37:35;4.47;;;1.90;;
41687;SDS011;27371;42.686;23.362;2023-06-10T12:40:02;2.95;;;1.55;;
41687;SDS011;27371;42.686;23.362;2023-06-10T12:42:32;4.75;;;2.28;;
41687;SDS011;27371;42.686;23.362;2023-06-10T12:45:02;3.03;;;1.88;;
41687;SDS011;27371;42.686;23.362;2023-06-10T12:47:32;4.65;;;1.60;;
41687;SDS011;27371;42.686;23.362;2023-06-10T12:50:00;3.53;;;1.60;;
41687;SDS011;27371;42.686;23.362;2023-06-10T12:52:26;4.50;;;1.70;;
41687;SDS011;27371;42.686;23.362;2023-06-10T12:54:52;7.05;;;2.00;;
41687;SDS011;27371;42.686;23.362;2023-06-10T12:57:19;5.57;;;2.15;;
41687;SDS011;27371;42.686;23.362;2023-06-10T12:59:45;2.95;;;2.00;;
41687;SDS011;27371;42.686;23.362;2023-06-10T13:02:17;7.63;;;2.28;;
41687;SDS011;27371;42.686;23.362;2023-06-10T13:04:49;4.03;;;2.00;;
41687;SDS011;27371;42.686;23.362;2023-06-10T13:07:15;4.10;;;2.10;;
41687;SDS011;27371;42.686;23.362;2023-06-10T13:09:41;2.88;;;1.77;;
41687;SDS011;27371;42.686;23.362;2023-06-10T13:12:08;4.45;;;1.90;;
41687;SDS011;27371;42.686;23.362;2023-06-10T13:14:34;4.22;;;1.90;;
41687;SDS011;27371;42.686;23.362;2023-06-10T13:17:03;3.20;;;2.10;;
41687;SDS011;27371;42.686;23.362;2023-06-10T13:19:31;3.97;;;2.08;;
41687;SDS011;27371;42.686;23.362;2023-06-10T13:21:57;4.30;;;1.98;;
41687;SDS011;27371;42.686;23.362;2023-06-10T13:24:23;4.28;;;2.13;;
41687;SDS011;27371;42.686;23.362;2023-06-10T13:26:48;4.78;;;2.15;;
41687;SDS011;27371;42.686;23.362;2023-06-10T13:29:14;11.30;;;3.20;;
41687;SDS011;27371;42.686;23.362;2023-06-10T13:31:40;10.05;;;2.88;;
41687;SDS011;27371;42.686;23.362;2023-06-10T13:34:06;12.45;;;3.55;;
41687;SDS011;27371;42.686;23.362;2023-06-10T13:36:32;6.75;;;2.45;;
41687;SDS011;27371;42.686;23.362;2023-06-10T13:38:57;6.10;;;3.00;;
41687;SDS011;27371;42.686;23.362;2023-06-10T13:41:23;6.80;;;2.53;;
41687;SDS011;27371;42.686;23.362;2023-06-10T13:43:49;6.18;;;2.50;;
41687;SDS011;27371;42.686;23.362;2023-06-10T13:46:15;9.60;;;2.75;;
41687;SDS011;27371;42.686;23.362;2023-06-10T13:48:40;3.90;;;2.67;;
41687;SDS011;27371;42.686;23.362;2023-06-10T13:51:06;4.38;;;2.90;;
41687;SDS011;27371;42.686;23.362;2023-06-10T13:53:34;3.70;;;2.92;;
41687;SDS011;27371;42.686;23.362;2023-06-10T13:55:59;7.55;;;2.83;;
41687;SDS011;27371;42.686;23.362;2023-06-10T13:58:25;5.68;;;3.00;;
41687;SDS011;27371;42.686;23.362;2023-06-10T14:00:50;8.60;;;2.97;;
41687;SDS011;27371;42.686;23.362;2023-06-10T14:03:16;6.53;;;2.83;;
41687;SDS011;27371;42.686;23.362;2023-06-10T14:05:41;4.32;;;2.67;;
41687;SDS011;27371;42.686;23.362;2023-06-10T14:08:07;6.00;;;3.20;;
41687;SDS011;27371;42.686;23.362;2023-06-10T14:10:33;6.70;;;3.45;;
41687;SDS011;27371;42.686;23.362;2023-06-10T14:12:58;4.82;;;3.75;;
41687;SDS011;27371;42.686;23.362;2023-06-10T14:15:25;5.68;;;3.45;;
41687;SDS011;27371;42.686;23.362;2023-06-10T14:17:50;7.50;;;3.38;;
41687;SDS011;27371;42.686;23.362;2023-06-10T14:20:16;4.05;;;2.90;;
41687;SDS011;27371;42.686;23.362;2023-06-10T14:22:41;6.50;;;3.20;;
41687;SDS011;27371;42.686;23.362;2023-06-10T14:25:10;7.20;;;3.00;;
41687;SDS011;27371;42.686;23.362;2023-06-10T14:27:37;6.55;;;3.22;;
41687;SDS011;27371;42.686;23.362;2023-06-10T14:30:03;7.20;;;2.97;;
41687;SDS011;27371;42.686;23.362;2023-06-10T14:32:29;6.82;;;3.10;;
41687;SDS011;27371;42.686;23.362;2023-06-10T14:34:55;5.78;;;3.10;;
41687;SDS011;27371;42.686;23.362;2023-06-10T14:37:20;3.75;;;2.80;;
41687;SDS011;27371;42.686;23.362;2023-06-10T14:39:46;7.55;;;2.95;;
41687;SDS011;27371;42.686;23.362;2023-06-10T14:42:11;7.57;;;3.22;;